AAL1068 KMIA-KPHL
Flight info
| Callsign | AAL1068 |
|---|---|
| Flight time | 2h 5m |
| Altitude | 39000 |
| Route | FOLZZ3 ALYRA DCT PELCN Y309 FLRDA DCT IDOLS DCT SKARP Q101 KALDA DCT ZJAAY JIIMS4 |
| Aircraft | B763/H-SDE3FGHIM3RWXY/LB1 |
Departure
| Time | 2026-05-04 13:07 |
|---|---|
| Airport | Miami International Airport (KMIA) |
Arrival
| Time | 2026-05-04 15:13 |
|---|---|
| Airport | Philadelphia International Airport (KPHL) |
| Time | Latitude | Longitude | Altitude | Speed | Heading |
|---|---|---|---|---|---|
| 2026-05-04 12:53 | 25.79790 | -80.27770 | 16 ft | 0 kts | 178° |
| 2026-05-04 12:59 | 25.79800 | -80.27771 | 16 ft | 2 kts | 178° |
| 2026-05-04 13:00 | 25.79815 | -80.27772 | 16 ft | 2 kts | 178° |
| 2026-05-04 13:00 | 25.79830 | -80.27773 | 16 ft | 2 kts | 178° |
| 2026-05-04 13:00 | 25.79844 | -80.27773 | 16 ft | 1 kts | 178° |
| 2026-05-04 13:00 | 25.79854 | -80.27774 | 16 ft | 2 kts | 169° |
| 2026-05-04 13:01 | 25.79867 | -80.27780 | 16 ft | 2 kts | 145° |
| 2026-05-04 13:01 | 25.79878 | -80.27791 | 16 ft | 2 kts | 124° |
| 2026-05-04 13:01 | 25.79884 | -80.27805 | 16 ft | 2 kts | 103° |
| 2026-05-04 13:01 | 25.79885 | -80.27818 | 16 ft | 1 kts | 87° |
| 2026-05-04 13:03 | 25.79886 | -80.27804 | 16 ft | 5 kts | 87° |
| 2026-05-04 13:04 | 25.79917 | -80.27760 | 16 ft | 10 kts | 21° |
| 2026-05-04 13:04 | 25.79973 | -80.27698 | 16 ft | 16 kts | 76° |
| 2026-05-04 13:04 | 25.79984 | -80.27564 | 16 ft | 17 kts | 87° |
| 2026-05-04 13:04 | 25.79991 | -80.27423 | 16 ft | 18 kts | 86° |
| 2026-05-04 13:05 | 25.80000 | -80.27280 | 16 ft | 18 kts | 86° |
| 2026-05-04 13:05 | 25.80011 | -80.27137 | 16 ft | 18 kts | 70° |
| 2026-05-04 13:05 | 25.80080 | -80.27042 | 16 ft | 15 kts | 50° |
| 2026-05-04 13:05 | 25.80165 | -80.26978 | 16 ft | 14 kts | 2° |
| 2026-05-04 13:06 | 25.80200 | -80.27023 | 16 ft | 7 kts | 269° |
| 2026-05-04 13:06 | 25.80195 | -80.27106 | 16 ft | 17 kts | 267° |
| 2026-05-04 13:06 | 25.80181 | -80.27385 | 16 ft | 63 kts | 267° |
| 2026-05-04 13:06 | 25.80156 | -80.28112 | 17 ft | 122 kts | 267° |
| 2026-05-04 13:07 | 25.80114 | -80.29056 | 32 ft | 163 kts | 268° |
| 2026-05-04 13:07 | 25.80033 | -80.30368 | 282 ft | 192 kts | 268° |
| 2026-05-04 13:07 | 25.80085 | -80.31977 | 567 ft | 226 kts | 278° |
| 2026-05-04 13:07 | 25.80290 | -80.33853 | 894 ft | 262 kts | 278° |
| 2026-05-04 13:08 | 25.80498 | -80.35912 | 1714 ft | 276 kts | 277° |
| 2026-05-04 13:08 | 25.80698 | -80.37991 | 3006 ft | 270 kts | 283° |
| 2026-05-04 13:08 | 25.81392 | -80.39790 | 4283 ft | 260 kts | 306° |
| 2026-05-04 13:08 | 25.82520 | -80.41376 | 5242 ft | 267 kts | 308° |
| 2026-05-04 13:09 | 25.83669 | -80.42933 | 6329 ft | 267 kts | 313° |
| 2026-05-04 13:09 | 25.85213 | -80.44065 | 7268 ft | 276 kts | 340° |
| 2026-05-04 13:09 | 25.87133 | -80.44313 | 8281 ft | 283 kts | 358° |
| 2026-05-04 13:09 | 25.89094 | -80.44258 | 9215 ft | 287 kts | 358° |
| 2026-05-04 13:10 | 25.91056 | -80.44204 | 10082 ft | 293 kts | 358° |
| 2026-05-04 13:10 | 25.93156 | -80.44032 | 10588 ft | 317 kts | 7° |
| 2026-05-04 13:10 | 25.95358 | -80.43175 | 10762 ft | 357 kts | 25° |
| 2026-05-04 13:10 | 25.97472 | -80.41484 | 11022 ft | 393 kts | 42° |
| 2026-05-04 13:11 | 25.99169 | -80.39056 | 11928 ft | 407 kts | 58° |
| 2026-05-04 13:11 | 26.00298 | -80.36113 | 12830 ft | 419 kts | 73° |
| 2026-05-04 13:11 | 26.00741 | -80.32936 | 13707 ft | 428 kts | 89° |
| 2026-05-04 13:11 | 26.00521 | -80.29723 | 14509 ft | 434 kts | 99° |
| 2026-05-04 13:12 | 26.00132 | -80.26724 | 15282 ft | 439 kts | 101° |
| 2026-05-04 13:13 | 25.99617 | -80.13890 | 18073 ft | 465 kts | 89° |
| 2026-05-04 13:13 | 25.99883 | -80.10409 | 18741 ft | 471 kts | 80° |
| 2026-05-04 13:13 | 26.00575 | -80.07125 | 19480 ft | 473 kts | 73° |
| 2026-05-04 13:13 | 26.01362 | -80.03825 | 20042 ft | 481 kts | 75° |
| 2026-05-04 13:14 | 26.02208 | -80.00011 | 20724 ft | 487 kts | 74° |
| 2026-05-04 13:14 | 26.03079 | -79.96196 | 21547 ft | 489 kts | 74° |
| 2026-05-04 13:14 | 26.03927 | -79.92533 | 22155 ft | 495 kts | 73° |
| 2026-05-04 13:14 | 26.04213 | -79.91294 | 22368 ft | 497 kts | 73° |
| 2026-05-04 13:15 | 26.05053 | -79.87670 | 22922 ft | 503 kts | 73° |
| 2026-05-04 13:15 | 26.05925 | -79.83915 | 23573 ft | 507 kts | 73° |
| 2026-05-04 13:15 | 26.06805 | -79.80127 | 24095 ft | 513 kts | 73° |
| 2026-05-04 13:15 | 26.07692 | -79.76290 | 24820 ft | 515 kts | 72° |
| 2026-05-04 13:16 | 26.08591 | -79.72419 | 25282 ft | 522 kts | 72° |
| 2026-05-04 13:16 | 26.09512 | -79.68482 | 25856 ft | 526 kts | 70° |
| 2026-05-04 13:16 | 26.10760 | -79.64690 | 26476 ft | 525 kts | 61° |
| 2026-05-04 13:16 | 26.12478 | -79.61143 | 26885 ft | 526 kts | 52° |
| 2026-05-04 13:17 | 26.14550 | -79.57815 | 27499 ft | 526 kts | 50° |
| 2026-05-04 13:17 | 26.16612 | -79.54460 | 27972 ft | 531 kts | 50° |
| 2026-05-04 13:17 | 26.18762 | -79.51018 | 28442 ft | 536 kts | 50° |
| 2026-05-04 13:17 | 26.20882 | -79.47634 | 29114 ft | 536 kts | 50° |
| 2026-05-04 13:18 | 26.23028 | -79.44233 | 29646 ft | 537 kts | 49° |
| 2026-05-04 13:18 | 26.25180 | -79.40827 | 30212 ft | 539 kts | 50° |
| 2026-05-04 13:18 | 26.27435 | -79.37552 | 30936 ft | 529 kts | 43° |
| 2026-05-04 13:18 | 26.30005 | -79.34711 | 31509 ft | 520 kts | 33° |
| 2026-05-04 13:19 | 26.32842 | -79.32346 | 32068 ft | 513 kts | 27° |
| 2026-05-04 13:19 | 26.35829 | -79.30125 | 32394 ft | 516 kts | 27° |
| 2026-05-04 13:19 | 26.38819 | -79.27934 | 33018 ft | 513 kts | 27° |
| 2026-05-04 13:19 | 26.41773 | -79.25800 | 33427 ft | 514 kts | 26° |
| 2026-05-04 13:20 | 26.44791 | -79.23628 | 34013 ft | 513 kts | 25° |
| 2026-05-04 13:20 | 26.47788 | -79.21483 | 34281 ft | 518 kts | 25° |
| 2026-05-04 13:20 | 26.50818 | -79.19312 | 34973 ft | 512 kts | 25° |
| 2026-05-04 13:20 | 26.53769 | -79.17205 | 35215 ft | 517 kts | 25° |
| 2026-05-04 13:21 | 26.56780 | -79.15053 | 35544 ft | 520 kts | 25° |
| 2026-05-04 13:21 | 26.59842 | -79.12860 | 36007 ft | 519 kts | 25° |
| 2026-05-04 13:21 | 26.62869 | -79.10694 | 36314 ft | 522 kts | 25° |
| 2026-05-04 13:21 | 26.65958 | -79.08481 | 36696 ft | 522 kts | 25° |
| 2026-05-04 13:22 | 26.69002 | -79.06300 | 37079 ft | 523 kts | 25° |
| 2026-05-04 13:22 | 26.72106 | -79.04076 | 37320 ft | 525 kts | 25° |
| 2026-05-04 13:22 | 26.75141 | -79.01894 | 37820 ft | 523 kts | 25° |
| 2026-05-04 13:23 | 26.81322 | -78.97456 | 38408 ft | 525 kts | 25° |
| 2026-05-04 13:23 | 26.87559 | -78.92972 | 38907 ft | 529 kts | 25° |
| 2026-05-04 13:23 | 26.90615 | -78.90768 | 39026 ft | 524 kts | 25° |
| 2026-05-04 13:24 | 26.93710 | -78.88537 | 39042 ft | 521 kts | 25° |
| 2026-05-04 13:24 | 26.99804 | -78.84146 | 39040 ft | 524 kts | 25° |
| 2026-05-04 13:25 | 27.09089 | -78.77441 | 39044 ft | 532 kts | 25° |
| 2026-05-04 13:25 | 27.15292 | -78.72955 | 39041 ft | 534 kts | 25° |
| 2026-05-04 13:26 | 27.21557 | -78.68414 | 39048 ft | 535 kts | 25° |
| 2026-05-04 13:26 | 27.27972 | -78.64493 | 39069 ft | 517 kts | 11° |
| 2026-05-04 13:27 | 27.31381 | -78.63335 | 39063 ft | 506 kts | 2° |
| 2026-05-04 13:27 | 27.34434 | -78.62749 | 39067 ft | 501 kts | 358° |
| 2026-05-04 13:27 | 27.41367 | -78.61723 | 39045 ft | 500 kts | 357° |
| 2026-05-04 13:28 | 27.48267 | -78.60787 | 39058 ft | 499 kts | 356° |
| 2026-05-04 13:28 | 27.55152 | -78.59882 | 39063 ft | 498 kts | 357° |
| 2026-05-04 13:29 | 27.62031 | -78.58985 | 39070 ft | 497 kts | 357° |
| 2026-05-04 13:29 | 27.68930 | -78.58086 | 39068 ft | 497 kts | 357° |
| 2026-05-04 13:30 | 27.75738 | -78.57198 | 39084 ft | 495 kts | 357° |
| 2026-05-04 13:30 | 27.82620 | -78.56301 | 39082 ft | 497 kts | 357° |
| 2026-05-04 13:31 | 27.89492 | -78.55404 | 39089 ft | 499 kts | 357° |
| 2026-05-04 13:31 | 27.96368 | -78.54503 | 39097 ft | 495 kts | 357° |
| 2026-05-04 13:32 | 28.03214 | -78.53606 | 39099 ft | 495 kts | 357° |
| 2026-05-04 13:32 | 28.10064 | -78.52708 | 39093 ft | 496 kts | 357° |
| 2026-05-04 13:33 | 28.16910 | -78.51808 | 39090 ft | 494 kts | 357° |
| 2026-05-04 13:33 | 28.23747 | -78.50909 | 39089 ft | 493 kts | 357° |
| 2026-05-04 13:34 | 28.30609 | -78.50008 | 39098 ft | 495 kts | 357° |
| 2026-05-04 13:34 | 28.37440 | -78.49105 | 39106 ft | 494 kts | 357° |
| 2026-05-04 13:35 | 28.47643 | -78.47757 | 39093 ft | 492 kts | 357° |
| 2026-05-04 13:36 | 28.54408 | -78.46864 | 39099 ft | 493 kts | 357° |
| 2026-05-04 13:36 | 28.61235 | -78.45959 | 39095 ft | 493 kts | 357° |
| 2026-05-04 13:37 | 28.68023 | -78.45058 | 39103 ft | 491 kts | 356° |
| 2026-05-04 13:37 | 28.74842 | -78.44154 | 39107 ft | 492 kts | 357° |
| 2026-05-04 13:38 | 28.81646 | -78.43249 | 39106 ft | 490 kts | 357° |
| 2026-05-04 13:38 | 28.88407 | -78.42348 | 39111 ft | 489 kts | 356° |
| 2026-05-04 13:39 | 28.95180 | -78.41447 | 39117 ft | 490 kts | 356° |
| 2026-05-04 13:39 | 29.01906 | -78.40548 | 39112 ft | 489 kts | 356° |
| 2026-05-04 13:40 | 29.08692 | -78.39641 | 39115 ft | 489 kts | 356° |
| 2026-05-04 13:40 | 29.15485 | -78.38733 | 39113 ft | 492 kts | 357° |
| 2026-05-04 13:41 | 29.22234 | -78.37826 | 39118 ft | 490 kts | 356° |
| 2026-05-04 13:41 | 29.29015 | -78.36917 | 39114 ft | 489 kts | 356° |
| 2026-05-04 13:42 | 29.39195 | -78.35550 | 39126 ft | 490 kts | 357° |
| 2026-05-04 13:42 | 29.45934 | -78.34643 | 39116 ft | 492 kts | 357° |
| 2026-05-04 13:43 | 29.52639 | -78.34493 | 39133 ft | 472 kts | 346° |
| 2026-05-04 13:43 | 29.59207 | -78.35033 | 39117 ft | 474 kts | 347° |
| 2026-05-04 13:44 | 29.65799 | -78.35535 | 39116 ft | 476 kts | 347° |
| 2026-05-04 13:44 | 29.72435 | -78.36028 | 39118 ft | 475 kts | 347° |
| 2026-05-04 13:45 | 29.79004 | -78.36516 | 39114 ft | 473 kts | 346° |
| 2026-05-04 13:45 | 29.85569 | -78.37006 | 39125 ft | 474 kts | 347° |
| 2026-05-04 13:46 | 29.92177 | -78.37498 | 39122 ft | 477 kts | 347° |
| 2026-05-04 13:46 | 29.98756 | -78.37987 | 39112 ft | 475 kts | 347° |
| 2026-05-04 13:47 | 30.05345 | -78.38478 | 39140 ft | 474 kts | 347° |
| 2026-05-04 13:47 | 30.11904 | -78.38946 | 39118 ft | 475 kts | 350° |
| 2026-05-04 13:48 | 30.18592 | -78.38290 | 39133 ft | 488 kts | 358° |
| 2026-05-04 13:48 | 30.25373 | -78.37312 | 39129 ft | 491 kts | 358° |
| 2026-05-04 13:49 | 30.32135 | -78.36307 | 39126 ft | 490 kts | 359° |
| 2026-05-04 13:49 | 30.38900 | -78.35294 | 39130 ft | 487 kts | 359° |
| 2026-05-04 13:50 | 30.45603 | -78.34019 | 39139 ft | 492 kts | 3° |
| 2026-05-04 13:50 | 30.52310 | -78.32433 | 39131 ft | 494 kts | 3° |
| 2026-05-04 13:51 | 30.59014 | -78.30861 | 39124 ft | 493 kts | 3° |
| 2026-05-04 13:51 | 30.65740 | -78.29288 | 39129 ft | 495 kts | 3° |
| 2026-05-04 13:52 | 30.75885 | -78.26912 | 39137 ft | 495 kts | 3° |
| 2026-05-04 13:53 | 30.82611 | -78.25331 | 39127 ft | 491 kts | 3° |
| 2026-05-04 13:53 | 30.89312 | -78.23758 | 39134 ft | 493 kts | 3° |
| 2026-05-04 13:54 | 30.99368 | -78.21468 | 39133 ft | 488 kts | 2° |
| 2026-05-04 13:55 | 31.09405 | -78.19241 | 39130 ft | 494 kts | 3° |
| 2026-05-04 13:55 | 31.19535 | -78.16982 | 39131 ft | 492 kts | 3° |
| 2026-05-04 13:56 | 31.26225 | -78.15490 | 39132 ft | 490 kts | 3° |
| 2026-05-04 13:57 | 31.36322 | -78.13235 | 39136 ft | 492 kts | 3° |
| 2026-05-04 13:58 | 31.49721 | -78.10115 | 39131 ft | 489 kts | 4° |
| 2026-05-04 13:58 | 31.59736 | -78.07697 | 39137 ft | 493 kts | 4° |
| 2026-05-04 13:59 | 31.66421 | -78.06077 | 39137 ft | 489 kts | 4° |
| 2026-05-04 14:00 | 31.76435 | -78.03648 | 39165 ft | 490 kts | 4° |
| 2026-05-04 14:00 | 31.86429 | -78.01219 | 39158 ft | 489 kts | 4° |
| 2026-05-04 14:01 | 31.93103 | -77.99594 | 39157 ft | 489 kts | 4° |
| 2026-05-04 14:02 | 32.03031 | -77.97172 | 39168 ft | 488 kts | 4° |
| 2026-05-04 14:02 | 32.09698 | -77.95542 | 39159 ft | 489 kts | 4° |
| 2026-05-04 14:03 | 32.16360 | -77.93910 | 39159 ft | 485 kts | 4° |
| 2026-05-04 14:03 | 32.22986 | -77.92288 | 39160 ft | 487 kts | 4° |
| 2026-05-04 14:04 | 32.32957 | -77.89839 | 39151 ft | 490 kts | 5° |
| 2026-05-04 14:04 | 32.39597 | -77.88204 | 39157 ft | 488 kts | 4° |
| 2026-05-04 14:05 | 32.49528 | -77.85757 | 39146 ft | 487 kts | 4° |
| 2026-05-04 14:06 | 32.56183 | -77.84113 | 39149 ft | 487 kts | 5° |
| 2026-05-04 14:06 | 32.62835 | -77.82468 | 39160 ft | 488 kts | 5° |
| 2026-05-04 14:07 | 32.69442 | -77.80830 | 39173 ft | 487 kts | 5° |
| 2026-05-04 14:07 | 32.76089 | -77.79181 | 39168 ft | 486 kts | 5° |
| 2026-05-04 14:08 | 32.82692 | -77.77541 | 39161 ft | 486 kts | 5° |
| 2026-05-04 14:08 | 32.89290 | -77.75899 | 39165 ft | 486 kts | 5° |
| 2026-05-04 14:09 | 32.99239 | -77.73418 | 39155 ft | 487 kts | 5° |
| 2026-05-04 14:10 | 33.09192 | -77.70929 | 39166 ft | 485 kts | 5° |
| 2026-05-04 14:10 | 33.15790 | -77.69277 | 39152 ft | 485 kts | 5° |
| 2026-05-04 14:11 | 33.22430 | -77.67613 | 39159 ft | 487 kts | 5° |
| 2026-05-04 14:11 | 33.32340 | -77.65121 | 39144 ft | 483 kts | 5° |
| 2026-05-04 14:12 | 33.38918 | -77.63467 | 39156 ft | 485 kts | 5° |
| 2026-05-04 14:13 | 33.48836 | -77.60964 | 39165 ft | 483 kts | 5° |
| 2026-05-04 14:13 | 33.55382 | -77.59310 | 39151 ft | 484 kts | 5° |
| 2026-05-04 14:14 | 33.61983 | -77.57864 | 39149 ft | 480 kts | 1° |
| 2026-05-04 14:14 | 33.71867 | -77.55974 | 39152 ft | 480 kts | 2° |
| 2026-05-04 14:15 | 33.85048 | -77.53431 | 39149 ft | 481 kts | 2° |
| 2026-05-04 14:16 | 33.94969 | -77.51511 | 39164 ft | 479 kts | 2° |
| 2026-05-04 14:17 | 34.04820 | -77.49599 | 39156 ft | 478 kts | 2° |
| 2026-05-04 14:18 | 34.14706 | -77.47678 | 39136 ft | 480 kts | 2° |
| 2026-05-04 14:19 | 34.27908 | -77.45103 | 39142 ft | 479 kts | 1° |
| 2026-05-04 14:19 | 34.34513 | -77.43813 | 39127 ft | 481 kts | 2° |
| 2026-05-04 14:20 | 34.41127 | -77.42518 | 39147 ft | 482 kts | 2° |
| 2026-05-04 14:20 | 34.47733 | -77.40989 | 39135 ft | 489 kts | 10° |
| 2026-05-04 14:21 | 34.54019 | -77.37656 | 39127 ft | 501 kts | 19° |
| 2026-05-04 14:21 | 34.57135 | -77.35772 | 39144 ft | 501 kts | 20° |
| 2026-05-04 14:21 | 34.63370 | -77.31953 | 39120 ft | 500 kts | 21° |
| 2026-05-04 14:22 | 34.69536 | -77.28149 | 39132 ft | 502 kts | 20° |
| 2026-05-04 14:22 | 34.75781 | -77.24285 | 39136 ft | 503 kts | 21° |
| 2026-05-04 14:23 | 34.85097 | -77.18504 | 39131 ft | 503 kts | 20° |
| 2026-05-04 14:24 | 34.91346 | -77.14618 | 39125 ft | 507 kts | 21° |
| 2026-05-04 14:24 | 34.97612 | -77.10714 | 39137 ft | 506 kts | 20° |
| 2026-05-04 14:25 | 35.03863 | -77.06812 | 39155 ft | 504 kts | 20° |
| 2026-05-04 14:25 | 35.13278 | -77.00925 | 39119 ft | 504 kts | 21° |
| 2026-05-04 14:26 | 35.19511 | -76.97019 | 39105 ft | 506 kts | 21° |
| 2026-05-04 14:26 | 35.25758 | -76.93123 | 39109 ft | 504 kts | 20° |
| 2026-05-04 14:27 | 35.32061 | -76.89295 | 39114 ft | 504 kts | 20° |
| 2026-05-04 14:27 | 35.38338 | -76.85471 | 39132 ft | 506 kts | 20° |
| 2026-05-04 14:28 | 35.44610 | -76.81643 | 39119 ft | 505 kts | 20° |
| 2026-05-04 14:28 | 35.50894 | -76.77801 | 39116 ft | 506 kts | 20° |
| 2026-05-04 14:29 | 35.63485 | -76.70081 | 39115 ft | 505 kts | 20° |
| 2026-05-04 14:30 | 35.69775 | -76.66215 | 39123 ft | 506 kts | 20° |
| 2026-05-04 14:31 | 35.79206 | -76.60403 | 39116 ft | 505 kts | 20° |
| 2026-05-04 14:32 | 35.91757 | -76.52552 | 39127 ft | 509 kts | 22° |
| 2026-05-04 14:32 | 35.97958 | -76.48360 | 39126 ft | 509 kts | 22° |
| 2026-05-04 14:33 | 36.04150 | -76.44181 | 39122 ft | 510 kts | 22° |
| 2026-05-04 14:33 | 36.10396 | -76.39961 | 39125 ft | 510 kts | 22° |
| 2026-05-04 14:34 | 36.16605 | -76.35756 | 39110 ft | 508 kts | 22° |
| 2026-05-04 14:34 | 36.22776 | -76.31574 | 39091 ft | 510 kts | 23° |
| 2026-05-04 14:35 | 36.28997 | -76.27345 | 39093 ft | 510 kts | 23° |
| 2026-05-04 14:35 | 36.35215 | -76.23114 | 39093 ft | 511 kts | 23° |
| 2026-05-04 14:36 | 36.41441 | -76.18868 | 39089 ft | 510 kts | 23° |
| 2026-05-04 14:36 | 36.47646 | -76.14629 | 39099 ft | 510 kts | 23° |
| 2026-05-04 14:37 | 36.53854 | -76.10380 | 39077 ft | 510 kts | 23° |
| 2026-05-04 14:37 | 36.60062 | -76.06123 | 39082 ft | 510 kts | 23° |
| 2026-05-04 14:38 | 36.66260 | -76.01865 | 39089 ft | 510 kts | 23° |
| 2026-05-04 14:38 | 36.72460 | -75.97598 | 39074 ft | 510 kts | 23° |
| 2026-05-04 14:39 | 36.78655 | -75.93327 | 39077 ft | 508 kts | 23° |
| 2026-05-04 14:39 | 36.84802 | -75.89081 | 39086 ft | 508 kts | 24° |
| 2026-05-04 14:40 | 36.94073 | -75.82661 | 39084 ft | 509 kts | 24° |
| 2026-05-04 14:40 | 37.00279 | -75.78354 | 39081 ft | 509 kts | 24° |
| 2026-05-04 14:41 | 37.06649 | -75.74708 | 39093 ft | 497 kts | 9° |
| 2026-05-04 14:42 | 37.20133 | -75.71487 | 39086 ft | 494 kts | 4° |
| 2026-05-04 14:42 | 37.26857 | -75.70031 | 39082 ft | 491 kts | 4° |
| 2026-05-04 14:43 | 37.33598 | -75.68581 | 39085 ft | 492 kts | 3° |
| 2026-05-04 14:43 | 37.40303 | -75.67138 | 39081 ft | 492 kts | 3° |
| 2026-05-04 14:44 | 37.47036 | -75.65688 | 39065 ft | 491 kts | 4° |
| 2026-05-04 14:44 | 37.53786 | -75.64231 | 39079 ft | 492 kts | 3° |
| 2026-05-04 14:45 | 37.60513 | -75.62778 | 39065 ft | 492 kts | 4° |
| 2026-05-04 14:45 | 37.67260 | -75.61414 | 39062 ft | 487 kts | 358° |
| 2026-05-04 14:46 | 37.73965 | -75.61659 | 39080 ft | 481 kts | 349° |
| 2026-05-04 14:46 | 37.80591 | -75.62318 | 39062 ft | 478 kts | 349° |
| 2026-05-04 14:47 | 37.87187 | -75.63000 | 39058 ft | 477 kts | 349° |
| 2026-05-04 14:47 | 37.93867 | -75.62859 | 39067 ft | 480 kts | 4° |
| 2026-05-04 14:48 | 38.00221 | -75.60139 | 39071 ft | 492 kts | 23° |
| 2026-05-04 14:48 | 38.05816 | -75.54913 | 39071 ft | 507 kts | 42° |
| 2026-05-04 14:49 | 38.08223 | -75.51605 | 38661 ft | 515 kts | 42° |
| 2026-05-04 14:49 | 38.10868 | -75.48551 | 37989 ft | 504 kts | 32° |
| 2026-05-04 14:49 | 38.13679 | -75.45997 | 37559 ft | 495 kts | 28° |
| 2026-05-04 14:49 | 38.16568 | -75.43642 | 36988 ft | 493 kts | 26° |
| 2026-05-04 14:50 | 38.19472 | -75.41403 | 36406 ft | 492 kts | 25° |
| 2026-05-04 14:50 | 38.22266 | -75.39304 | 35818 ft | 491 kts | 25° |
| 2026-05-04 14:50 | 38.25207 | -75.37129 | 35205 ft | 490 kts | 24° |
| 2026-05-04 14:50 | 38.28156 | -75.34966 | 34573 ft | 490 kts | 24° |
| 2026-05-04 14:51 | 38.31139 | -75.32790 | 33924 ft | 489 kts | 24° |
| 2026-05-04 14:51 | 38.34082 | -75.30645 | 33273 ft | 488 kts | 24° |
| 2026-05-04 14:51 | 38.37026 | -75.28501 | 32608 ft | 487 kts | 24° |
| 2026-05-04 14:51 | 38.39973 | -75.26355 | 31946 ft | 486 kts | 24° |
| 2026-05-04 14:52 | 38.42896 | -75.24226 | 31283 ft | 484 kts | 25° |
| 2026-05-04 14:52 | 38.45790 | -75.22114 | 30611 ft | 483 kts | 25° |
| 2026-05-04 14:52 | 38.48711 | -75.19982 | 29809 ft | 481 kts | 25° |
| 2026-05-04 14:52 | 38.51609 | -75.17864 | 29023 ft | 479 kts | 25° |
| 2026-05-04 14:53 | 38.54482 | -75.15764 | 28240 ft | 476 kts | 25° |
| 2026-05-04 14:53 | 38.57357 | -75.13663 | 27448 ft | 473 kts | 24° |
| 2026-05-04 14:53 | 38.60283 | -75.11773 | 26661 ft | 466 kts | 20° |
| 2026-05-04 14:53 | 38.63142 | -75.09962 | 26480 ft | 450 kts | 22° |
| 2026-05-04 14:54 | 38.65877 | -75.08202 | 26087 ft | 441 kts | 21° |
| 2026-05-04 14:54 | 38.68596 | -75.06460 | 25465 ft | 436 kts | 21° |
| 2026-05-04 14:54 | 38.71291 | -75.04732 | 24869 ft | 431 kts | 21° |
| 2026-05-04 14:54 | 38.73936 | -75.03036 | 24284 ft | 426 kts | 22° |
| 2026-05-04 14:55 | 38.76586 | -75.01334 | 23707 ft | 421 kts | 22° |
| 2026-05-04 14:55 | 38.79195 | -74.99656 | 23019 ft | 418 kts | 22° |
| 2026-05-04 14:55 | 38.81759 | -74.98008 | 22359 ft | 415 kts | 22° |
| 2026-05-04 14:55 | 38.84341 | -74.96345 | 21771 ft | 410 kts | 22° |
| 2026-05-04 14:56 | 38.86876 | -74.94711 | 21120 ft | 407 kts | 22° |
| 2026-05-04 14:56 | 38.89367 | -74.93105 | 20445 ft | 404 kts | 22° |
| 2026-05-04 14:56 | 38.91861 | -74.91496 | 19837 ft | 401 kts | 22° |
| 2026-05-04 14:56 | 38.94339 | -74.89896 | 19190 ft | 397 kts | 22° |
| 2026-05-04 14:57 | 38.96788 | -74.88313 | 18579 ft | 394 kts | 22° |
| 2026-05-04 14:57 | 38.99233 | -74.86732 | 17950 ft | 391 kts | 23° |
| 2026-05-04 14:57 | 39.01652 | -74.85165 | 17377 ft | 387 kts | 23° |
| 2026-05-04 14:57 | 39.04034 | -74.83621 | 16795 ft | 384 kts | 23° |
| 2026-05-04 14:58 | 39.06411 | -74.82104 | 16183 ft | 379 kts | 20° |
| 2026-05-04 14:58 | 39.08897 | -74.81164 | 15566 ft | 370 kts | 4° |
| 2026-05-04 14:58 | 39.11449 | -74.81152 | 15011 ft | 360 kts | 348° |
| 2026-05-04 14:58 | 39.13854 | -74.81888 | 14519 ft | 355 kts | 341° |
| 2026-05-04 14:59 | 39.15835 | -74.82567 | 14108 ft | 355 kts | 342° |
| 2026-05-04 14:59 | 39.18527 | -74.83485 | 13567 ft | 351 kts | 341° |
| 2026-05-04 14:59 | 39.23206 | -74.85182 | 12686 ft | 347 kts | 340° |
| 2026-05-04 15:00 | 39.25523 | -74.86043 | 12233 ft | 345 kts | 340° |
| 2026-05-04 15:00 | 39.27825 | -74.86905 | 11803 ft | 343 kts | 340° |
| 2026-05-04 15:00 | 39.30080 | -74.87753 | 11423 ft | 341 kts | 340° |
| 2026-05-04 15:01 | 39.34631 | -74.89468 | 10630 ft | 337 kts | 340° |
| 2026-05-04 15:01 | 39.36878 | -74.90318 | 10294 ft | 332 kts | 340° |
| 2026-05-04 15:01 | 39.39041 | -74.91129 | 10269 ft | 314 kts | 340° |
| 2026-05-04 15:01 | 39.41139 | -74.91566 | 10248 ft | 303 kts | 355° |
| 2026-05-04 15:02 | 39.43229 | -74.91471 | 10196 ft | 295 kts | 358° |
| 2026-05-04 15:02 | 39.45282 | -74.91335 | 10038 ft | 295 kts | 358° |
| 2026-05-04 15:02 | 39.47360 | -74.91192 | 9943 ft | 295 kts | 358° |
| 2026-05-04 15:02 | 39.49417 | -74.91045 | 9756 ft | 297 kts | 358° |
| 2026-05-04 15:03 | 39.51469 | -74.90897 | 9480 ft | 296 kts | 358° |
| 2026-05-04 15:03 | 39.53527 | -74.90749 | 9207 ft | 296 kts | 358° |
| 2026-05-04 15:03 | 39.55575 | -74.90601 | 8927 ft | 296 kts | 358° |
| 2026-05-04 15:03 | 39.57630 | -74.90452 | 8588 ft | 295 kts | 358° |
| 2026-05-04 15:04 | 39.59686 | -74.90304 | 8177 ft | 293 kts | 358° |
| 2026-05-04 15:04 | 39.61699 | -74.90157 | 7782 ft | 288 kts | 358° |
| 2026-05-04 15:04 | 39.63680 | -74.90007 | 7404 ft | 283 kts | 358° |
| 2026-05-04 15:04 | 39.65633 | -74.89855 | 7033 ft | 283 kts | 358° |
| 2026-05-04 15:05 | 39.67617 | -74.89702 | 6684 ft | 282 kts | 358° |
| 2026-05-04 15:05 | 39.69585 | -74.89548 | 6356 ft | 281 kts | 358° |
| 2026-05-04 15:05 | 39.71524 | -74.89398 | 6033 ft | 280 kts | 358° |
| 2026-05-04 15:05 | 39.73450 | -74.89254 | 5703 ft | 280 kts | 358° |
| 2026-05-04 15:06 | 39.75400 | -74.89111 | 5304 ft | 278 kts | 358° |
| 2026-05-04 15:06 | 39.77339 | -74.88974 | 4870 ft | 276 kts | 358° |
| 2026-05-04 15:06 | 39.79239 | -74.88847 | 4445 ft | 275 kts | 358° |
| 2026-05-04 15:07 | 39.83070 | -74.88623 | 3611 ft | 272 kts | 358° |
| 2026-05-04 15:07 | 39.84916 | -74.88766 | 3433 ft | 266 kts | 339° |
| 2026-05-04 15:07 | 39.86527 | -74.89885 | 3272 ft | 257 kts | 317° |
| 2026-05-04 15:07 | 39.87910 | -74.91319 | 3087 ft | 257 kts | 318° |
| 2026-05-04 15:08 | 39.89317 | -74.92753 | 3000 ft | 257 kts | 318° |
| 2026-05-04 15:08 | 39.90728 | -74.94188 | 3004 ft | 256 kts | 318° |
| 2026-05-04 15:08 | 39.92113 | -74.95690 | 3002 ft | 253 kts | 307° |
| 2026-05-04 15:08 | 39.92819 | -74.97698 | 3031 ft | 244 kts | 271° |
| 2026-05-04 15:09 | 39.92466 | -74.99812 | 3039 ft | 237 kts | 246° |
| 2026-05-04 15:09 | 39.91845 | -75.01743 | 2990 ft | 226 kts | 250° |
| 2026-05-04 15:09 | 39.91363 | -75.03626 | 2906 ft | 220 kts | 252° |
| 2026-05-04 15:10 | 39.90505 | -75.07451 | 2330 ft | 218 kts | 253° |
| 2026-05-04 15:10 | 39.90115 | -75.09332 | 2041 ft | 216 kts | 254° |
| 2026-05-04 15:10 | 39.89365 | -75.13054 | 1509 ft | 203 kts | 255° |
| 2026-05-04 15:11 | 39.89024 | -75.14770 | 1208 ft | 187 kts | 254° |
| 2026-05-04 15:11 | 39.88712 | -75.16340 | 943 ft | 172 kts | 254° |
| 2026-05-04 15:11 | 39.88415 | -75.17829 | 726 ft | 165 kts | 254° |
| 2026-05-04 15:11 | 39.88145 | -75.19188 | 518 ft | 148 kts | 253° |
| 2026-05-04 15:12 | 39.87903 | -75.20401 | 371 ft | 128 kts | 253° |
| 2026-05-04 15:12 | 39.87680 | -75.21513 | 190 ft | 125 kts | 253° |
| 2026-05-04 15:12 | 39.87455 | -75.22626 | 41 ft | 127 kts | 253° |
| 2026-05-04 15:12 | 39.87258 | -75.23617 | 19 ft | 82 kts | 255° |
| 2026-05-04 15:13 | 39.87169 | -75.24075 | 19 ft | 34 kts | 259° |
| 2026-05-04 15:13 | 39.87163 | -75.24331 | 19 ft | 11 kts | 285° |
| 2026-05-04 15:13 | 39.87186 | -75.24432 | 19 ft | 6 kts | 286° |
| 2026-05-04 15:13 | 39.87199 | -75.24494 | 19 ft | 3 kts | 282° |
| 2026-05-04 15:14 | 39.87200 | -75.24500 | 19 ft | 0 kts | 281° |
| 2026-05-04 15:14 | 39.87197 | -75.24522 | 19 ft | 8 kts | 254° |
| 2026-05-04 15:14 | 39.87174 | -75.24618 | 20 ft | 12 kts | 253° |
| 2026-05-04 15:15 | 39.87152 | -75.24726 | 21 ft | 12 kts | 256° |
| 2026-05-04 15:15 | 39.87146 | -75.24831 | 21 ft | 10 kts | 297° |
| 2026-05-04 15:15 | 39.87194 | -75.24860 | 21 ft | 6 kts | 347° |
| 2026-05-04 15:16 | 39.87270 | -75.24805 | 21 ft | 5 kts | 40° |
| 2026-05-04 15:16 | 39.87289 | -75.24784 | 21 ft | 2 kts | 38° |
| 2026-05-04 15:16 | 39.87297 | -75.24777 | 21 ft | 0 kts | 38° |